East Princeton, MA (01517)

7:08 AM EDT on August 31, 2015 (GMT -0400)
Wilder Road | | Change Station
CLOSE
Current Station
Personal Weather Station
Location: Sterling, MA
Elevation: 489 ft
Nearby Weather Stations

Elev 489 ft 42.44 °N, 71.80 °W | Updated 3 seconds ago

Partly Cloudy
Partly Cloudy
62.6 °F
Feels Like 62.6 °F
N
0.0
Wind Variable Wind from NNE
Gusts 0.0 mph

Today
High -- | Low -- °F
--% Chance of Precip.
Yesterday
High -- | Low -- °F
Precip. -- in
6:11 AM 7:23 PM
Waning Gibbous, 96% visible
Pressure 30.00 in
Visibility 7.0 miles
Clouds Clear
Dew Point 62 °F
Humidity 99%
Rainfall in
Snow Depth Not available.
UV 0 out of 12
Pollen 10.30 out of 12
Air Quality Not available.
Flu Activity Not available.
METAR KFIT 311052Z AUTO 35006KT 7SM CLR 20/18 A3000 RMK AO2 SLP158 T02000178
Pressure 30.00 in
Visibility 7.0 miles
Clouds Clear
Dew Point 62 °F
Humidity 99%
Rainfall in
Snow Depth Not available.
UV 0 out of 12
Pollen 10.30 out of 12
Air Quality Not available.
Flu Activity Not available.
METAR KFIT 311052Z AUTO 35006KT 7SM CLR 20/18 A3000 RMK AO2 SLP158 T02000178

10-Day Weather Forecast

×

Almanac

Astronomy

Aug. 31, 2015 Rise Set
Actual Time
Civil Twilight
Nautical Twilight
Astronomical Twilight
Moon
Length of Visible Light
Length of Day
Tomorrow will be .
, % of the Moon is Illuminated

Today's Extremes

State Highs State Lows

Community

WunderPhotos

Upload Photos

1,851,217 photos uploaded!

WunderBlogs® & News

Nearby

Air Quality

  Air Quality AQ Index Pollutant
Not available.

Snow Depth

Station Depth Elevation

Earthquake Activity

City Distance Mag. Time & Date
Minimum magnitude displayed is 2.5.

Coastal Water Temperatures

Place Temperature

Stations

Nearby Weather Stations

Station Location Temp. Windchill Dew Point Humidity Wind Precip. Elev Updated Type